createdAt,value
2017-08-11T00:00:14.621Z,10.07
2017-08-11T00:02:42.903Z,12.57
2017-08-11T00:05:11.191Z,13.73
2017-08-11T00:07:39.524Z,12.33
2017-08-11T00:10:07.799Z,11.23
2017-08-11T00:12:36.128Z,12.47
2017-08-11T00:15:04.506Z,15.97
2017-08-11T00:17:32.833Z,10.97
2017-08-11T00:20:01.124Z,10.93
2017-08-11T00:22:29.449Z,12.47
2017-08-11T00:24:58.514Z,11.83
2017-08-11T00:27:26.848Z,13.20
2017-08-11T00:29:55.163Z,13.10
2017-08-11T00:32:24.219Z,13.43
2017-08-11T00:34:52.535Z,15.00
2017-08-11T00:37:20.968Z,12.83
2017-08-11T00:39:49.373Z,12.17
2017-08-11T00:42:17.700Z,13.77
2017-08-11T00:44:46.766Z,15.90
2017-08-11T00:47:15.201Z,21.80
2017-08-11T00:49:43.491Z,14.03
2017-08-11T00:52:11.811Z,19.40
2017-08-11T00:54:40.208Z,17.27
2017-08-11T00:57:08.612Z,15.13
2017-08-11T00:59:36.945Z,17.80
2017-08-11T01:02:06.027Z,18.50
2017-08-11T01:04:34.351Z,16.50
2017-08-11T01:07:02.740Z,16.87
2017-08-11T01:09:31.135Z,19.87
2017-08-11T01:11:59.454Z,15.30
2017-08-11T01:14:27.743Z,17.30
2017-08-11T01:16:56.074Z,19.00
2017-08-11T01:19:25.141Z,20.57
2017-08-11T01:21:53.477Z,18.60
2017-08-11T01:24:21.805Z,18.20
2017-08-11T01:26:50.911Z,19.37
2017-08-11T01:29:19.976Z,17.73
2017-08-11T01:31:48.603Z,19.87
2017-08-11T01:34:16.924Z,17.33
2017-08-11T01:36:45.256Z,20.03
2017-08-11T01:39:14.342Z,19.93
2017-08-11T01:41:42.631Z,23.70
2017-08-11T01:44:10.951Z,18.50
2017-08-11T01:46:39.357Z,27.00
2017-08-11T01:49:07.760Z,20.50
2017-08-11T01:51:36.088Z,20.90
2017-08-11T01:54:05.174Z,22.77
2017-08-11T01:56:33.494Z,22.20
2017-08-11T01:59:01.786Z,21.30
2017-08-11T02:01:30.102Z,22.00
2017-08-11T02:03:58.427Z,21.93
2017-08-11T02:06:27.607Z,19.70
2017-08-11T02:08:55.919Z,20.20
2017-08-11T02:11:24.239Z,26.23
2017-08-11T02:13:53.335Z,24.63
2017-08-11T02:16:21.667Z,21.57
2017-08-11T02:18:50.719Z,25.13
2017-08-11T02:21:19.007Z,26.37
2017-08-11T02:23:47.335Z,25.23
2017-08-11T02:26:15.754Z,23.43
2017-08-11T02:28:44.052Z,25.03
2017-08-11T02:31:12.353Z,23.87
2017-08-11T02:33:40.764Z,24.70
2017-08-11T02:36:09.051Z,22.53
2017-08-11T02:38:37.382Z,31.00
2017-08-11T02:41:05.770Z,24.50
2017-08-11T02:43:34.119Z,24.57
2017-08-11T02:46:03.189Z,22.53
2017-08-11T02:48:31.475Z,27.93
2017-08-11T02:50:59.801Z,28.23
2017-08-11T02:53:28.119Z,31.33
2017-08-11T02:55:56.510Z,30.30
2017-08-11T02:58:24.820Z,30.20
2017-08-11T03:00:53.148Z,22.70
2017-08-11T03:03:22.226Z,23.23
2017-08-11T03:05:50.547Z,25.90
2017-08-11T03:08:18.932Z,29.27
2017-08-11T03:10:47.260Z,31.10
2017-08-11T03:13:15.547Z,25.50
2017-08-11T03:15:43.849Z,24.60
2017-08-11T03:18:12.242Z,30.30
2017-08-11T03:20:40.571Z,24.00
2017-08-11T03:23:09.677Z,23.43
2017-08-11T03:25:37.963Z,21.40
2017-08-11T03:28:06.375Z,23.50
2017-08-11T03:30:35.075Z,23.50
2017-08-11T03:33:03.362Z,26.93
2017-08-11T03:35:31.800Z,22.13
2017-08-11T03:38:00.095Z,25.47
2017-08-11T03:40:28.420Z,28.00
2017-08-11T03:42:56.802Z,23.87
2017-08-11T03:45:47.693Z,20.70
2017-08-11T03:48:15.988Z,22.20
2017-08-11T03:50:44.303Z,23.50
2017-08-11T03:53:12.601Z,25.50
2017-08-11T03:55:40.925Z,25.23
2017-08-11T03:58:09.246Z,24.00
2017-08-11T04:00:37.652Z,25.70
2017-08-11T04:03:05.976Z,27.53
2017-08-11T04:05:35.078Z,23.77
2017-08-11T04:08:03.484Z,27.27
2017-08-11T04:10:31.788Z,23.60
2017-08-11T04:13:00.189Z,31.80
2017-08-11T04:15:28.504Z,28.00
2017-08-11T04:17:56.795Z,23.63
2017-08-11T04:20:25.197Z,24.00
2017-08-11T04:22:53.627Z,26.67
2017-08-11T04:25:22.818Z,22.90
2017-08-11T04:27:51.134Z,23.67
2017-08-11T04:30:19.514Z,24.30
2017-08-11T04:32:47.923Z,25.27
2017-08-11T04:35:16.218Z,25.77
2017-08-11T04:37:44.507Z,24.13
2017-08-11T04:40:12.836Z,26.30
2017-08-11T04:42:41.144Z,21.93
2017-08-11T04:45:09.440Z,25.00
2017-08-11T04:47:37.768Z,26.27
2017-08-11T04:50:06.844Z,25.23
2017-08-11T04:52:35.158Z,23.97
2017-08-11T04:55:03.488Z,27.23
2017-08-11T04:57:32.552Z,26.60
2017-08-11T05:00:00.889Z,24.63
2017-08-11T05:02:29.179Z,29.03
2017-08-11T05:04:57.583Z,28.03
2017-08-11T05:07:25.891Z,29.47
2017-08-11T05:09:54.291Z,29.20
2017-08-11T05:12:22.592Z,29.40
2017-08-11T05:14:50.923Z,28.70
2017-08-11T05:17:19.974Z,28.80
2017-08-11T05:19:48.266Z,28.10
2017-08-11T05:22:16.597Z,28.07
2017-08-11T05:24:45.018Z,27.60
2017-08-11T05:27:13.323Z,35.37
2017-08-11T05:29:41.653Z,28.13
2017-08-11T05:32:09.985Z,25.87
2017-08-11T05:34:38.270Z,27.73
2017-08-11T05:37:07.459Z,26.30
2017-08-11T05:39:35.757Z,25.63
2017-08-11T05:42:04.084Z,24.90
2017-08-11T05:44:32.380Z,26.07
2017-08-11T05:47:00.774Z,31.53
2017-08-11T05:49:29.096Z,29.90
2017-08-11T05:51:58.196Z,27.97
2017-08-11T05:54:26.520Z,28.00
2017-08-11T05:56:55.676Z,28.07
2017-08-11T05:59:24.015Z,25.97
2017-08-11T06:01:52.436Z,25.20
2017-08-11T06:04:20.824Z,27.23
2017-08-11T06:06:49.152Z,26.83
2017-08-11T06:09:18.231Z,27.33
2017-08-11T06:11:46.533Z,26.37
2017-08-11T06:14:14.957Z,27.60
2017-08-11T06:16:43.351Z,24.60
2017-08-11T06:19:11.755Z,23.73
2017-08-11T06:21:40.057Z,24.30
2017-08-11T06:24:08.352Z,25.67
2017-08-11T06:26:36.686Z,22.70
2017-08-11T06:29:04.984Z,25.20
2017-08-11T06:31:33.376Z,27.40
2017-08-11T06:34:01.691Z,30.57
2017-08-11T06:36:29.982Z,27.07
2017-08-11T06:38:58.305Z,28.40
2017-08-11T06:41:27.401Z,25.57
2017-08-11T06:43:55.701Z,27.57
2017-08-11T06:46:24.031Z,27.47
2017-08-11T06:48:53.129Z,27.00
2017-08-11T06:51:21.451Z,30.07
2017-08-11T06:53:50.537Z,27.43
2017-08-11T06:56:18.849Z,29.30
2017-08-11T06:58:47.143Z,29.43
2017-08-11T07:01:15.552Z,26.10
2017-08-11T07:03:43.955Z,28.80
2017-08-11T07:06:12.262Z,27.23
2017-08-11T07:08:40.654Z,26.77
2017-08-11T07:11:09.049Z,25.10
2017-08-11T07:13:37.463Z,27.03
2017-08-11T07:16:06.812Z,25.20
2017-08-11T07:18:35.099Z,28.63
2017-08-11T07:21:03.498Z,31.50
2017-08-11T07:23:31.787Z,30.30
2017-08-11T07:26:00.110Z,28.17
2017-08-11T07:28:28.399Z,34.43
2017-08-11T07:30:56.704Z,29.53
2017-08-11T07:33:25.116Z,27.60
2017-08-11T07:35:53.441Z,29.10
2017-08-11T07:38:22.515Z,31.73
2017-08-11T07:40:50.817Z,35.53
2017-08-11T07:43:20.116Z,34.83
2017-08-11T07:45:48.464Z,33.93
2017-08-11T07:48:16.783Z,32.40
2017-08-11T07:50:45.081Z,32.27
2017-08-11T07:53:13.408Z,32.23
2017-08-11T07:55:42.494Z,31.73
2017-08-11T07:58:10.896Z,31.70
2017-08-11T08:00:39.215Z,35.17
2017-08-11T08:03:08.271Z,30.97
2017-08-11T08:05:36.558Z,31.83
2017-08-11T08:08:04.911Z,33.40
2017-08-11T08:10:33.207Z,37.13
2017-08-11T08:13:01.632Z,33.20
2017-08-11T08:15:29.960Z,31.07
2017-08-11T08:17:59.157Z,32.93
2017-08-11T08:20:27.560Z,34.43
2017-08-11T08:22:55.856Z,35.80
2017-08-11T08:25:24.267Z,37.07
2017-08-11T08:27:52.904Z,38.63
2017-08-11T08:30:22.001Z,38.97
2017-08-11T08:32:50.397Z,35.13
2017-08-11T08:35:18.687Z,37.90
2017-08-11T08:37:47.007Z,32.97
2017-08-11T08:40:15.298Z,31.87
2017-08-11T08:42:43.587Z,29.10
2017-08-11T08:45:12.009Z,25.30
2017-08-11T08:47:40.413Z,25.40
2017-08-11T08:50:08.735Z,25.93
2017-08-11T08:52:37.827Z,26.37
2017-08-11T08:55:06.125Z,25.43
2017-08-11T08:57:34.541Z,28.87
2017-08-11T09:00:02.840Z,25.73
2017-08-11T09:02:31.169Z,27.03
2017-08-11T09:05:00.263Z,26.77
2017-08-11T09:07:28.583Z,30.13
2017-08-11T09:09:56.963Z,29.00
2017-08-11T09:12:25.265Z,25.50
2017-08-11T09:14:53.771Z,22.40
2017-08-11T09:17:22.908Z,21.20
2017-08-11T09:19:51.227Z,20.27
2017-08-11T09:22:20.315Z,18.87
2017-08-11T09:25:00.505Z,20.43
2017-08-11T09:27:41.032Z,19.00
2017-08-11T09:30:21.276Z,17.03
2017-08-11T09:33:01.506Z,18.07
2017-08-11T09:35:41.848Z,16.17
2017-08-11T09:38:10.538Z,17.10
2017-08-11T09:40:38.860Z,15.07
2017-08-11T09:43:07.179Z,16.73
2017-08-11T09:45:36.276Z,16.10
2017-08-11T09:48:04.572Z,17.07
2017-08-11T09:50:32.984Z,20.60
2017-08-11T09:53:01.271Z,17.90
2017-08-11T09:55:29.696Z,19.77
2017-08-11T09:57:58.091Z,16.30
2017-08-11T10:00:26.392Z,18.57
2017-08-11T10:02:54.726Z,17.10
2017-08-11T10:05:23.788Z,21.00
2017-08-11T10:07:52.414Z,18.07
2017-08-11T10:10:20.736Z,16.60
2017-08-11T10:12:49.023Z,16.00
2017-08-11T10:15:17.680Z,15.97
2017-08-11T10:17:46.047Z,14.87
2017-08-11T10:20:14.340Z,15.13
2017-08-11T10:22:42.626Z,13.83
2017-08-11T10:25:11.045Z,14.20
2017-08-11T10:27:39.349Z,13.20
2017-08-11T10:30:07.657Z,13.27
2017-08-11T10:32:36.060Z,12.17
2017-08-11T10:35:04.356Z,13.87
2017-08-11T10:37:32.679Z,13.27
2017-08-11T10:40:01.063Z,13.20
2017-08-11T10:42:29.466Z,11.20
2017-08-11T10:44:57.800Z,11.80
2017-08-11T10:47:26.855Z,11.97
2017-08-11T10:49:55.212Z,10.37
2017-08-11T10:52:23.505Z,10.30
2017-08-11T10:54:51.933Z,10.53
2017-08-11T10:57:21.014Z,10.23
2017-08-11T10:59:49.310Z,10.93
2017-08-11T11:02:17.620Z,10.20
2017-08-11T11:04:45.944Z,12.20
2017-08-11T11:07:14.332Z,12.83
2017-08-11T11:09:42.661Z,13.30
2017-08-11T11:12:11.757Z,12.53
2017-08-11T11:14:40.084Z,10.93
2017-08-11T11:17:09.181Z,11.17
2017-08-11T11:19:37.574Z,11.77
2017-08-11T11:22:05.871Z,10.93
2017-08-11T11:24:34.188Z,11.07
2017-08-11T11:27:02.592Z,10.27
2017-08-11T11:29:30.987Z,10.90
2017-08-11T11:31:59.401Z,10.27
2017-08-11T11:34:27.695Z,10.03
2017-08-11T11:36:56.099Z,12.00
2017-08-11T11:39:24.394Z,10.10
2017-08-11T11:41:52.724Z,8.00
2017-08-11T11:44:21.108Z,11.93
2017-08-11T11:46:49.423Z,9.73
2017-08-11T11:49:17.703Z,8.83
2017-08-11T11:51:45.988Z,8.97
2017-08-11T11:54:14.303Z,7.60
2017-08-11T11:56:42.597Z,10.20
2017-08-11T11:59:11.011Z,9.30
2017-08-11T12:01:39.324Z,9.00
2017-08-11T12:04:07.624Z,9.23
2017-08-11T12:06:35.940Z,8.97
2017-08-11T12:09:04.260Z,10.10
2017-08-11T12:11:33.348Z,10.40
2017-08-11T12:14:01.639Z,9.37
2017-08-11T12:16:29.951Z,9.90
2017-08-11T12:18:58.648Z,10.13
2017-08-11T12:21:26.972Z,11.17
2017-08-11T12:23:55.367Z,11.73
2017-08-11T12:26:23.777Z,9.73
2017-08-11T12:28:52.062Z,9.90
2017-08-11T12:31:20.372Z,8.03
2017-08-11T12:33:48.671Z,7.80
2017-08-11T12:36:16.982Z,7.50
2017-08-11T12:38:45.276Z,7.53
2017-08-11T12:41:13.585Z,7.60
2017-08-11T12:43:41.956Z,6.67
2017-08-11T12:46:10.267Z,6.00
2017-08-11T12:48:38.588Z,6.97
2017-08-11T12:51:06.905Z,6.73
2017-08-11T12:53:35.228Z,6.53
2017-08-11T12:56:04.301Z,7.10
2017-08-11T12:58:32.707Z,8.23
2017-08-11T13:01:01.119Z,8.60
2017-08-11T13:03:29.528Z,9.90
2017-08-11T13:05:57.932Z,8.97
2017-08-11T13:08:26.322Z,8.77
2017-08-11T13:10:54.627Z,8.80
2017-08-11T13:13:22.940Z,9.93
2017-08-11T13:15:51.265Z,7.97
2017-08-11T13:18:19.544Z,8.30
2017-08-11T13:20:47.932Z,7.43
2017-08-11T13:23:16.344Z,6.83
2017-08-11T13:25:44.618Z,7.60
2017-08-11T13:28:12.952Z,8.40
2017-08-11T13:30:41.231Z,7.73
2017-08-11T13:33:09.904Z,6.20
2017-08-11T13:35:38.942Z,6.13
2017-08-11T13:38:07.255Z,5.60
2017-08-11T13:40:35.568Z,5.00
2017-08-11T13:43:03.879Z,5.77
2017-08-11T13:45:32.200Z,5.00
2017-08-11T13:48:00.488Z,4.60
2017-08-11T13:50:28.887Z,4.20
2017-08-11T13:52:57.290Z,5.13
2017-08-11T13:55:25.609Z,4.33
2017-08-11T13:57:53.892Z,4.73
2017-08-11T14:00:22.202Z,4.13
2017-08-11T14:02:50.532Z,3.60
2017-08-11T14:05:19.571Z,3.17
2017-08-11T14:07:48.219Z,3.53
2017-08-11T14:10:16.519Z,3.40
2017-08-11T14:12:44.835Z,4.00
2017-08-11T14:15:13.121Z,3.10
2017-08-11T14:17:41.408Z,2.93
2017-08-11T14:20:09.714Z,3.20
2017-08-11T14:22:38.002Z,4.37
2017-08-11T14:25:06.339Z,4.27
2017-08-11T14:27:34.652Z,2.80
2017-08-11T14:30:02.957Z,3.23
2017-08-11T14:32:31.268Z,2.33
2017-08-11T14:34:59.556Z,2.57
2017-08-11T14:37:27.838Z,3.07
2017-08-11T14:39:56.161Z,2.50
2017-08-11T14:42:24.439Z,2.93
2017-08-11T14:44:52.847Z,2.53
2017-08-11T14:47:21.159Z,2.17
2017-08-11T14:49:49.476Z,2.33
2017-08-11T14:52:17.764Z,1.97
2017-08-11T14:54:46.081Z,2.37
2017-08-11T14:57:14.392Z,2.13
2017-08-11T14:59:42.680Z,2.27
2017-08-11T15:02:11.088Z,1.93
2017-08-11T15:04:39.369Z,2.53
2017-08-11T15:07:07.649Z,2.40
2017-08-11T15:09:35.963Z,2.80
2017-08-11T15:12:04.252Z,3.23
2017-08-11T15:14:32.596Z,3.30
2017-08-11T15:17:01.068Z,3.83
2017-08-11T15:19:29.404Z,3.37
2017-08-11T15:21:57.720Z,2.43
2017-08-11T15:24:26.008Z,2.50
2017-08-11T15:26:54.332Z,2.60
2017-08-11T15:29:22.617Z,2.40
2017-08-11T15:31:50.922Z,3.03
2017-08-11T15:34:19.213Z,2.73
2017-08-11T15:36:47.538Z,2.60
2017-08-11T15:39:15.915Z,2.83
2017-08-11T15:41:44.311Z,2.13
2017-08-11T15:44:12.587Z,2.77
2017-08-11T15:46:40.928Z,3.40
2017-08-11T15:49:09.323Z,3.13
2017-08-11T15:51:37.636Z,5.87
2017-08-11T15:54:06.036Z,4.53
2017-08-11T15:56:34.352Z,4.60
2017-08-11T15:59:02.740Z,4.00
2017-08-11T16:01:31.056Z,4.20
2017-08-11T16:03:59.335Z,3.53
2017-08-11T16:06:27.855Z,3.60
2017-08-11T16:08:56.251Z,2.70
2017-08-11T16:11:24.541Z,2.53
2017-08-11T16:13:52.832Z,2.60
2017-08-11T16:16:21.146Z,2.73
2017-08-11T16:18:49.455Z,3.63
2017-08-11T16:21:17.851Z,3.63
2017-08-11T16:23:46.176Z,3.27
2017-08-11T16:26:14.493Z,3.30
2017-08-11T16:28:42.776Z,3.27
2017-08-11T16:31:11.180Z,4.50
2017-08-11T16:33:39.476Z,4.63
2017-08-11T16:36:07.764Z,4.07
2017-08-11T16:38:36.071Z,4.93
2017-08-11T16:41:04.372Z,4.70
2017-08-11T16:43:32.765Z,5.20
2017-08-11T16:46:01.049Z,4.83
2017-08-11T16:48:29.362Z,8.17
2017-08-11T16:50:57.667Z,4.60
2017-08-11T16:53:25.978Z,6.60
2017-08-11T16:55:54.290Z,6.43
2017-08-11T16:58:22.571Z,7.27
2017-08-11T17:00:51.306Z,6.47
2017-08-11T17:03:19.609Z,7.57
2017-08-11T17:05:47.896Z,7.20
2017-08-11T17:08:16.225Z,6.80
2017-08-11T17:10:44.526Z,8.33
2017-08-11T17:13:12.843Z,11.53
2017-08-11T17:15:41.242Z,12.30
2017-08-11T17:18:09.550Z,16.80
2017-08-11T17:20:37.892Z,15.47
2017-08-11T17:23:06.256Z,13.67
2017-08-11T17:25:34.552Z,12.40
2017-08-11T17:28:02.871Z,12.83
2017-08-11T17:30:31.949Z,13.37
2017-08-11T17:33:00.294Z,12.97
2017-08-11T17:35:28.688Z,12.33
2017-08-11T17:37:56.974Z,11.13
2017-08-11T17:40:25.395Z,10.37
2017-08-11T17:42:53.672Z,11.70
2017-08-11T17:45:22.001Z,12.57
2017-08-11T17:47:50.297Z,10.23
2017-08-11T17:50:18.683Z,10.67
2017-08-11T17:52:46.970Z,10.60
2017-08-11T17:55:15.295Z,15.00
2017-08-11T17:57:43.695Z,11.97
2017-08-11T18:00:12.005Z,12.87
2017-08-11T18:02:40.340Z,12.77
2017-08-11T18:05:09.394Z,12.67
2017-08-11T18:07:37.692Z,14.80
2017-08-11T18:10:07.651Z,17.80
2017-08-11T18:12:35.981Z,15.13
2017-08-11T18:15:04.372Z,16.47
2017-08-11T18:17:32.696Z,15.23
2017-08-11T18:20:01.074Z,17.13
2017-08-11T18:22:29.367Z,14.23
2017-08-11T18:24:57.697Z,15.47
2017-08-11T18:27:25.987Z,15.30
2017-08-11T18:29:54.415Z,14.13
2017-08-11T18:32:22.732Z,14.13
2017-08-11T18:34:51.211Z,13.43
2017-08-11T18:37:19.527Z,13.83
2017-08-11T18:39:47.815Z,12.47
2017-08-11T18:42:16.137Z,11.93
2017-08-11T18:44:44.531Z,12.40
2017-08-11T18:47:12.820Z,15.33
2017-08-11T18:49:41.107Z,14.40
2017-08-11T18:52:09.425Z,13.40
2017-08-11T18:54:37.719Z,12.50
2017-08-11T18:57:06.049Z,13.33
2017-08-11T18:59:34.452Z,14.97
2017-08-11T19:02:02.784Z,13.77
2017-08-11T19:04:31.849Z,12.83
2017-08-11T19:07:00.151Z,13.30
2017-08-11T19:09:28.583Z,13.63
2017-08-11T19:11:56.874Z,12.80
2017-08-11T19:14:25.205Z,12.53
2017-08-11T19:16:54.328Z,15.13
2017-08-11T19:19:23.383Z,13.13
2017-08-11T19:21:51.728Z,13.57
2017-08-11T19:24:20.024Z,12.70
2017-08-11T19:26:48.368Z,12.43
2017-08-11T19:29:17.532Z,14.77
2017-08-11T19:31:45.872Z,14.00
2017-08-11T19:34:14.272Z,15.13
2017-08-11T19:36:42.667Z,15.53
2017-08-11T19:39:10.956Z,13.73
2017-08-11T19:41:39.669Z,15.40
2017-08-11T19:44:07.992Z,14.70
2017-08-11T19:46:36.283Z,19.03
2017-08-11T19:49:04.613Z,13.80
2017-08-11T19:51:33.000Z,15.00
2017-08-11T19:54:01.395Z,15.43
2017-08-11T19:56:29.699Z,13.20
2017-08-11T19:58:58.024Z,13.80
2017-08-11T20:01:26.311Z,14.63
2017-08-11T20:03:54.717Z,14.70
2017-08-11T20:06:23.008Z,14.10
2017-08-11T20:08:51.340Z,13.83
2017-08-11T20:11:20.527Z,13.93
2017-08-11T20:13:48.847Z,13.53
2017-08-11T20:16:17.183Z,13.40
2017-08-11T20:18:45.535Z,13.23
2017-08-11T20:21:13.832Z,14.03
2017-08-11T20:23:42.150Z,13.80
2017-08-11T20:26:10.523Z,13.30
2017-08-11T20:28:38.812Z,12.40
2017-08-11T20:31:07.236Z,13.70
2017-08-11T20:33:35.664Z,13.70
2017-08-11T20:36:04.068Z,13.80
2017-08-11T20:38:32.400Z,12.80
2017-08-11T20:41:00.651Z,12.73
2017-08-11T20:43:29.006Z,12.73
2017-08-11T20:45:58.094Z,13.20
2017-08-11T20:48:26.501Z,14.43
2017-08-11T20:50:54.800Z,13.97
2017-08-11T20:53:23.128Z,13.23
2017-08-11T20:55:52.785Z,14.10
2017-08-11T20:58:21.127Z,14.20
2017-08-11T21:00:49.442Z,13.70
2017-08-11T21:03:17.840Z,14.37
2017-08-11T21:05:46.136Z,15.30
2017-08-11T21:08:14.465Z,15.47
2017-08-11T21:10:43.644Z,14.27
2017-08-11T21:13:11.926Z,15.70
2017-08-11T21:15:40.376Z,14.40
2017-08-11T21:18:08.663Z,14.53
2017-08-11T21:20:36.956Z,14.57
2017-08-11T21:23:05.279Z,15.50
2017-08-11T21:25:33.675Z,14.33
2017-08-11T21:28:01.996Z,14.90
2017-08-11T21:30:30.328Z,14.47
2017-08-11T21:32:58.782Z,14.83
2017-08-11T21:35:27.096Z,14.10
2017-08-11T21:37:55.429Z,14.90
2017-08-11T21:40:24.492Z,15.43
2017-08-11T21:42:52.831Z,14.87
2017-08-11T21:45:21.160Z,14.33
2017-08-11T21:47:49.525Z,17.20
2017-08-11T21:50:17.920Z,15.17
2017-08-11T21:52:46.242Z,15.53
2017-08-11T21:55:14.541Z,15.70
2017-08-11T21:57:42.831Z,14.90
2017-08-11T22:00:11.163Z,14.87
2017-08-11T22:02:41.487Z,14.40
2017-08-11T22:05:09.816Z,17.53
2017-08-11T22:07:38.899Z,14.23
2017-08-11T22:10:07.198Z,14.33
2017-08-11T22:12:35.610Z,15.63
2017-08-11T22:15:03.912Z,13.83
2017-08-11T22:17:32.245Z,15.97
2017-08-11T22:20:01.341Z,15.63
2017-08-11T22:22:29.641Z,18.53
2017-08-11T22:24:57.958Z,15.77
2017-08-11T22:27:26.255Z,15.70
2017-08-11T22:29:54.653Z,14.50
2017-08-11T22:32:23.043Z,17.50
2017-08-11T22:34:51.331Z,19.47
2017-08-11T22:37:19.663Z,19.40
2017-08-11T22:39:47.968Z,15.83
2017-08-11T22:42:16.484Z,18.80
2017-08-11T22:44:44.812Z,17.77
2017-08-11T22:47:13.140Z,19.87
2017-08-11T22:49:41.438Z,21.73
2017-08-11T22:52:09.768Z,20.87
2017-08-11T22:54:38.065Z,20.97
2017-08-11T22:57:06.392Z,21.83
2017-08-11T22:59:34.688Z,24.30
2017-08-11T23:02:03.084Z,24.93
2017-08-11T23:04:31.488Z,21.17
2017-08-11T23:06:59.805Z,20.20
2017-08-11T23:09:28.136Z,24.13
2017-08-11T23:11:56.432Z,22.23
2017-08-11T23:14:25.525Z,23.77
2017-08-11T23:16:53.921Z,22.73
2017-08-11T23:19:22.216Z,22.97
2017-08-11T23:21:50.498Z,22.53
2017-08-11T23:24:18.826Z,21.70
2017-08-11T23:26:47.214Z,22.27
2017-08-11T23:29:15.528Z,20.67
2017-08-11T23:31:43.861Z,24.13
2017-08-11T23:34:12.910Z,21.87
2017-08-11T23:36:41.246Z,24.87
2017-08-11T23:39:09.549Z,23.70
2017-08-11T23:41:37.956Z,25.20
2017-08-11T23:44:06.364Z,22.97
2017-08-11T23:46:34.660Z,22.50
2017-08-11T23:49:02.955Z,22.90
2017-08-11T23:51:31.278Z,27.43
2017-08-11T23:53:59.663Z,24.50
2017-08-11T23:56:27.967Z,23.30
2017-08-11T23:58:56.297Z,17.87
